Time;durP1;ratioP1;P1;durP2;ratioP2;P2;SDS_P1;SDS_P2;PMS_P1;PMS_P2;Temp;Humidity;BMP_temperature;BMP_pressure;BME280_temperature;BME280_humidity;BME280_pressure;Samples;Min_cycle;Max_cycle;Signal;HPM_P1;HPM_P2
2024/04/11 00:01:05;0.00;0.00;0.62;0.00;0.00;0.62;3.67;2.90;;;26.10;23.50;;;;;;2053355;62;20467;-65
2024/04/11 00:03:50;0.00;0.00;0.62;0.00;0.00;0.62;3.07;2.50;;;26.10;23.50;;;;;;2054360;54;20742;-65
2024/04/11 00:06:37;0.00;0.00;0.62;0.00;0.00;0.62;5.20;3.10;;;26.00;23.50;;;;;;2053339;62;20479;-65
2024/04/11 00:09:22;0.00;0.00;0.62;0.00;0.00;0.62;3.67;2.63;;;26.00;23.40;;;;;;2053577;62;20793;-65
2024/04/11 00:12:07;0.00;0.00;0.62;0.00;0.00;0.62;4.10;2.90;;;26.00;23.40;;;;;;2054138;62;20504;-64
2024/04/11 00:14:55;0.00;0.00;0.62;0.00;0.00;0.62;3.93;3.30;;;26.00;23.40;;;;;;2053165;62;20532;-66
2024/04/11 00:17:40;0.00;0.00;0.62;0.00;0.00;0.62;5.33;3.60;;;26.00;23.40;;;;;;2054067;62;20490;-64
2024/04/11 00:20:24;0.00;0.00;0.62;0.00;0.00;0.62;3.87;3.27;;;26.00;23.40;;;;;;2054036;62;20458;-65
2024/04/11 00:23:09;0.00;0.00;0.62;0.00;0.00;0.62;8.23;3.53;;;26.00;23.40;;;;;;2053063;62;21023;-65
2024/04/11 00:25:57;0.00;0.00;0.62;0.00;0.00;0.62;4.63;3.23;;;26.00;23.40;;;;;;2054147;62;20451;-64
2024/04/11 00:28:41;0.00;0.00;0.62;0.00;0.00;0.62;5.23;3.47;;;26.00;23.40;;;;;;2053949;62;20463;-65
2024/04/11 00:31:29;0.00;0.00;0.62;0.00;0.00;0.62;4.10;3.33;;;26.00;23.40;;;;;;2053664;62;20854;-64
2024/04/11 00:34:15;0.00;0.00;0.62;0.00;0.00;0.62;5.40;3.83;;;26.00;23.40;;;;;;2053969;62;20466;-65
2024/04/11 00:37:02;0.00;0.00;0.62;0.00;0.00;0.62;4.87;3.57;;;26.00;23.40;;;;;;2053499;62;21020;-66
2024/04/11 00:39:47;0.00;0.00;0.62;0.00;0.00;0.62;5.50;3.47;;;25.90;23.30;;;;;;2053880;62;20459;-65
2024/04/11 00:42:32;0.00;0.00;0.62;0.00;0.00;0.62;4.63;3.90;;;26.00;23.40;;;;;;2054015;62;20459;-66
2024/04/11 00:45:17;0.00;0.00;0.62;0.00;0.00;0.62;3.97;3.30;;;26.00;23.40;;;;;;2053362;62;20478;-65
2024/04/11 00:48:05;0.00;0.00;0.62;0.00;0.00;0.62;4.60;3.60;;;26.00;23.40;;;;;;2053805;62;20922;-65
2024/04/11 00:50:51;0.00;0.00;0.62;0.00;0.00;0.62;3.83;2.97;;;25.90;23.40;;;;;;2053288;62;21048;-65
2024/04/11 00:53:36;0.00;0.00;0.62;0.00;0.00;0.62;5.33;3.20;;;25.90;23.40;;;;;;2053539;62;21024;-65
2024/04/11 00:56:22;0.00;0.00;0.62;0.00;0.00;0.62;5.53;2.97;;;25.90;23.40;;;;;;2053482;62;20528;-65
2024/04/11 00:59:09;0.00;0.00;0.62;0.00;0.00;0.62;4.27;3.37;;;25.90;23.30;;;;;;2053547;62;21362;-66
2024/04/11 01:01:54;0.00;0.00;0.62;0.00;0.00;0.62;5.80;3.73;;;25.90;23.30;;;;;;2053875;62;21032;-65
2024/04/11 01:04:39;0.00;0.00;0.62;0.00;0.00;0.62;4.20;3.37;;;25.90;23.30;;;;;;2055484;57;20991;31
2024/04/11 01:07:27;0.00;0.00;0.62;0.00;0.00;0.62;3.07;2.70;;;25.90;23.30;;;;;;2031736;62;20507;-74
2024/04/11 01:10:17;0.00;0.00;0.62;0.00;0.00;0.62;6.00;3.47;;;25.90;23.40;;;;;;2036625;62;20502;-70
2024/04/11 01:13:02;0.00;0.00;0.62;0.00;0.00;0.62;3.87;3.47;;;25.90;23.30;;;;;;2036833;62;20999;-70
2024/04/11 01:15:47;0.00;0.00;0.62;0.00;0.00;0.62;4.03;2.90;;;25.90;23.40;;;;;;2036992;62;21023;-70
2024/04/11 01:18:31;0.00;0.00;0.62;0.00;0.00;0.62;3.20;2.90;;;25.90;23.40;;;;;;2037199;62;20474;-70
2024/04/11 01:21:16;0.00;0.00;0.62;0.00;0.00;0.62;4.80;2.83;;;25.80;23.30;;;;;;2037063;62;20482;-70
2024/04/11 01:24:04;0.00;0.00;0.62;0.00;0.00;0.62;4.50;2.83;;;25.80;23.30;;;;;;2037340;62;20876;-71
2024/04/11 01:26:48;0.00;0.00;0.62;0.00;0.00;0.62;4.53;2.90;;;25.80;23.30;;;;;;2037230;62;20479;-69
2024/04/11 01:29:35;0.00;0.00;0.62;0.00;0.00;0.62;4.23;3.00;;;25.80;23.30;;;;;;2031075;62;21011;-70
2024/04/11 01:32:19;0.00;0.00;0.62;0.00;0.00;0.62;4.27;2.70;;;25.80;23.30;;;;;;2032340;62;20496;-70
2024/04/11 01:35:04;0.00;0.00;0.62;0.00;0.00;0.62;3.80;2.40;;;25.80;23.30;;;;;;2032201;62;20484;-69
2024/04/11 01:37:49;0.00;0.00;0.62;0.00;0.00;0.62;3.90;2.70;;;25.80;23.30;;;;;;2031712;62;20501;-70
2024/04/11 01:40:36;0.00;0.00;0.62;0.00;0.00;0.62;2.50;2.10;;;25.80;23.30;;;;;;2032154;62;20512;-70
2024/04/11 01:43:21;0.00;0.00;0.62;0.00;0.00;0.62;3.93;2.47;;;25.80;23.30;;;;;;2031968;62;21034;-70
2024/04/11 01:46:07;0.00;0.00;0.62;0.00;0.00;0.62;2.93;2.60;;;25.80;23.30;;;;;;2031578;62;20506;-69
2024/04/11 01:48:52;0.00;0.00;0.62;0.00;0.00;0.62;3.03;2.30;;;25.80;23.30;;;;;;2031982;62;20475;-70
2024/04/11 01:51:46;0.00;0.00;0.62;0.00;0.00;0.62;3.50;2.60;;;25.80;23.30;;;;;;2031572;62;20468;-70
2024/04/11 01:54:31;0.00;0.00;0.62;0.00;0.00;0.62;4.67;2.30;;;25.80;23.30;;;;;;2025403;63;20556;-69
2024/04/11 01:57:18;0.00;0.00;0.62;0.00;0.00;0.62;3.57;2.30;;;25.80;23.30;;;;;;2027089;63;20486;-70
2024/04/11 02:00:06;0.00;0.00;0.62;0.00;0.00;0.62;3.93;2.63;;;25.80;23.30;;;;;;2026661;63;20545;-69
2024/04/11 02:02:56;0.00;0.00;0.62;0.00;0.00;0.62;3.00;2.40;;;25.80;23.30;;;;;;2026955;63;20469;-70
2024/04/11 02:05:41;0.00;0.00;0.62;0.00;0.00;0.62;3.17;2.17;;;25.80;23.30;;;;;;2023304;63;20469;-69
2024/04/11 02:08:26;0.00;0.00;0.62;0.00;0.00;0.62;2.67;1.70;;;25.70;23.20;;;;;;2027215;63;20476;-70
2024/04/11 02:11:11;0.00;0.00;0.62;0.00;0.00;0.62;3.70;2.57;;;25.70;23.20;;;;;;2022788;63;20935;-69
2024/04/11 02:13:59;0.00;0.00;0.62;0.00;0.00;0.62;4.37;2.47;;;25.70;23.20;;;;;;2022938;63;20454;-70
2024/04/11 02:16:44;0.00;0.00;0.62;0.00;0.00;0.62;3.30;2.43;;;25.70;23.20;;;;;;2027098;63;20542;-70
2024/04/11 02:19:29;0.00;0.00;0.62;0.00;0.00;0.62;2.73;2.27;;;25.70;23.30;;;;;;2026788;63;20716;-70
2024/04/11 02:22:17;0.00;0.00;0.62;0.00;0.00;0.62;3.10;2.27;;;25.70;23.20;;;;;;2026833;63;20474;-70
2024/04/11 02:25:02;0.00;0.00;0.62;0.00;0.00;0.62;3.30;2.40;;;25.70;23.30;;;;;;2027062;63;20528;-70
2024/04/11 02:27:47;0.00;0.00;0.62;0.00;0.00;0.62;2.50;2.17;;;25.70;23.30;;;;;;2027401;63;21071;-71
2024/04/11 02:30:34;0.00;0.00;0.62;0.00;0.00;0.62;2.40;2.20;;;25.70;23.30;;;;;;2026981;63;20561;-71
2024/04/11 02:33:22;0.00;0.00;0.62;0.00;0.00;0.62;4.23;2.63;;;25.70;23.30;;;;;;2022828;63;20514;-69
2024/04/11 02:36:08;0.00;0.00;0.62;0.00;0.00;0.62;2.50;2.03;;;25.70;23.30;;;;;;2022655;63;20481;-70
2024/04/11 02:38:53;0.00;0.00;0.62;0.00;0.00;0.62;2.10;1.83;;;25.70;23.30;;;;;;2023039;63;20469;-70
2024/04/11 02:41:38;0.00;0.00;0.62;0.00;0.00;0.62;3.20;2.10;;;25.70;23.30;;;;;;2026908;63;20506;-70
2024/04/11 02:44:24;0.00;0.00;0.62;0.00;0.00;0.62;2.90;2.10;;;25.70;23.30;;;;;;2026694;63;20477;-69
2024/04/11 02:47:13;0.00;0.00;0.62;0.00;0.00;0.62;2.87;2.33;;;25.70;23.30;;;;;;2027097;63;20514;-70
2024/04/11 02:49:58;0.00;0.00;0.62;0.00;0.00;0.62;2.87;2.00;;;25.70;23.30;;;;;;2026992;63;20473;-70
2024/04/11 02:52:43;0.00;0.00;0.62;0.00;0.00;0.62;2.57;1.77;;;25.70;23.30;;;;;;2022825;63;20477;-69
2024/04/11 02:55:28;0.00;0.00;0.62;0.00;0.00;0.62;3.40;2.17;;;25.70;23.30;;;;;;2023110;63;20473;-73
2024/04/11 02:58:13;0.00;0.00;0.62;0.00;0.00;0.62;2.50;1.90;;;25.70;23.30;;;;;;2027098;63;20532;-70
2024/04/11 03:01:01;0.00;0.00;0.62;0.00;0.00;0.62;2.40;1.77;;;25.60;23.20;;;;;;2027576;63;20501;-70
2024/04/11 03:03:48;0.00;0.00;0.62;0.00;0.00;0.62;2.60;1.77;;;25.70;23.30;;;;;;2027256;63;20481;-69
2024/04/11 03:09:26;0.00;0.00;0.62;0.00;0.00;0.62;2.53;1.70;;;25.70;23.20;;;;;;2041811;62;20584;-70
2024/04/11 03:12:11;0.00;0.00;0.62;0.00;0.00;0.62;2.33;1.97;;;25.70;23.20;;;;;;2042633;62;20465;-70
2024/04/11 03:14:57;0.00;0.00;0.62;0.00;0.00;0.62;2.70;1.80;;;25.70;23.20;;;;;;2045539;62;20473;-70
2024/04/11 03:17:42;0.00;0.00;0.62;0.00;0.00;0.62;2.00;1.67;;;25.70;23.20;;;;;;2042292;62;20515;-71
2024/04/11 03:20:29;0.00;0.00;0.62;0.00;0.00;0.62;2.20;1.53;;;25.70;23.20;;;;;;2041563;62;20528;-70
2024/04/11 03:23:14;0.00;0.00;0.62;0.00;0.00;0.62;2.30;1.63;;;25.70;23.20;;;;;;2042777;62;20967;-70
2024/04/11 03:25:59;0.00;0.00;0.62;0.00;0.00;0.62;2.80;1.80;;;25.70;23.10;;;;;;2042513;62;20477;-69
2024/04/11 03:28:44;0.00;0.00;0.62;0.00;0.00;0.62;2.53;1.73;;;25.70;23.10;;;;;;2042152;62;20473;-69
2024/04/11 03:31:30;0.00;0.00;0.62;0.00;0.00;0.62;2.47;1.77;;;25.60;23.00;;;;;;2042505;62;20527;-70
2024/04/11 03:34:15;0.00;0.00;0.62;0.00;0.00;0.62;2.40;1.87;;;25.60;23.10;;;;;;2042350;62;20470;-72
2024/04/11 03:37:03;0.00;0.00;0.62;0.00;0.00;0.62;2.83;1.87;;;25.60;23.60;;;;;;2042377;62;21056;-70
2024/04/11 03:39:48;0.00;0.00;0.62;0.00;0.00;0.62;2.17;1.50;;;25.60;23.00;;;;;;2042082;62;20890;-70
2024/04/11 03:42:33;0.00;0.00;0.62;0.00;0.00;0.62;2.53;1.60;;;25.60;23.00;;;;;;2042177;62;20539;-73
2024/04/11 03:45:24;0.00;0.00;0.62;0.00;0.00;0.62;3.30;1.73;;;25.60;23.00;;;;;;2042383;62;20543;-70
2024/04/11 03:48:09;0.00;0.00;0.62;0.00;0.00;0.62;2.83;1.53;;;25.60;23.00;;;;;;2038019;62;20535;-69
2024/04/11 03:50:55;0.00;0.00;0.62;0.00;0.00;0.62;2.20;1.53;;;25.60;23.00;;;;;;2042155;62;21084;-70
2024/04/11 03:53:44;0.00;0.00;0.62;0.00;0.00;0.62;2.37;1.80;;;25.60;23.00;;;;;;2042055;62;20600;-70
2024/04/11 03:56:29;0.00;0.00;0.62;0.00;0.00;0.62;2.30;1.70;;;25.60;23.00;;;;;;2042426;62;20528;-69
2024/04/11 03:59:14;0.00;0.00;0.62;0.00;0.00;0.62;2.60;1.80;;;25.60;23.00;;;;;;2042225;62;20472;-69
2024/04/11 04:02:00;0.00;0.00;0.62;0.00;0.00;0.62;2.20;1.70;;;25.50;23.00;;;;;;2042146;62;20535;-70
2024/04/11 04:04:45;0.00;0.00;0.62;0.00;0.00;0.62;2.00;1.57;;;25.50;22.90;;;;;;2045155;62;20464;-74
2024/04/11 04:07:29;0.00;0.00;0.62;0.00;0.00;0.62;3.73;2.00;;;25.50;23.40;;;;;;2042340;62;20468;-69
2024/04/11 04:10:17;0.00;0.00;0.62;0.00;0.00;0.62;2.70;1.70;;;25.50;23.40;;;;;;2045076;62;20473;-73
2024/04/11 04:13:03;0.00;0.00;0.62;0.00;0.00;0.62;4.10;2.00;;;25.50;22.90;;;;;;2045088;62;20545;-70
2024/04/11 04:15:30;0.00;0.00;0.62;0.00;0.00;0.62;4.27;2.13;;;25.50;22.90;;;;;;2041890;62;20899;-69
2024/04/11 04:18:15;0.00;0.00;0.62;0.00;0.00;0.62;3.10;2.50;;;25.50;22.90;;;;;;2042091;62;20572;-70
2024/04/11 04:21:00;0.00;0.00;0.62;0.00;0.00;0.62;2.67;1.93;;;25.50;22.90;;;;;;2045246;62;20462;-70
2024/04/11 04:23:48;0.00;0.00;0.62;0.00;0.00;0.62;3.83;2.20;;;25.50;22.90;;;;;;2042188;62;20520;-70
2024/04/11 04:26:38;0.00;0.00;0.62;0.00;0.00;0.62;2.10;1.80;;;25.50;22.90;;;;;;2042204;62;20482;-69
2024/04/11 04:29:23;0.00;0.00;0.62;0.00;0.00;0.62;3.30;1.90;;;25.40;22.80;;;;;;2045595;62;20469;-69
2024/04/11 04:32:08;0.00;0.00;0.62;0.00;0.00;0.62;2.17;1.40;;;25.40;22.80;;;;;;2042152;62;20469;-72
2024/04/11 04:34:54;0.00;0.00;0.62;0.00;0.00;0.62;2.03;1.60;;;25.40;22.80;;;;;;2042182;62;20485;-71
2024/04/11 04:37:40;0.00;0.00;0.62;0.00;0.00;0.62;3.47;2.93;;;25.40;22.80;;;;;;2042492;62;20486;-70
2024/04/11 04:40:25;0.00;0.00;0.62;0.00;0.00;0.62;2.47;1.77;;;25.40;22.80;;;;;;2042148;62;20466;-70
2024/04/11 04:43:12;0.00;0.00;0.62;0.00;0.00;0.62;3.17;2.17;;;25.40;22.70;;;;;;2042174;62;20482;-69
2024/04/11 04:45:57;0.00;0.00;0.62;0.00;0.00;0.62;4.17;2.50;;;25.40;22.70;;;;;;2042015;62;20953;-70
2024/04/11 04:48:42;0.00;0.00;0.62;0.00;0.00;0.62;2.67;2.30;;;25.40;22.70;;;;;;2042299;62;20536;-71
2024/04/11 04:51:27;0.00;0.00;0.62;0.00;0.00;0.62;3.20;2.37;;;25.40;22.70;;;;;;2042575;62;20477;-71
2024/04/11 04:54:13;0.00;0.00;0.62;0.00;0.00;0.62;3.20;2.57;;;25.40;22.70;;;;;;2042280;62;20470;-70
2024/04/11 04:56:58;0.00;0.00;0.62;0.00;0.00;0.62;5.73;3.20;;;25.40;22.70;;;;;;2042094;62;20991;-69
2024/04/11 04:59:46;0.00;0.00;0.62;0.00;0.00;0.62;5.23;2.87;;;25.40;22.70;;;;;;2042347;62;20477;-70
2024/04/11 05:02:32;0.00;0.00;0.62;0.00;0.00;0.62;4.17;2.90;;;25.30;22.70;;;;;;2042257;62;20540;-69
2024/04/11 05:05:18;0.00;0.00;0.62;0.00;0.00;0.62;3.63;2.80;;;25.30;22.70;;;;;;2041982;62;20540;-69
2024/04/11 05:08:07;0.00;0.00;0.62;0.00;0.00;0.62;3.53;2.77;;;25.30;22.70;;;;;;2042034;62;21038;-70
2024/04/11 05:10:53;0.00;0.00;0.62;0.00;0.00;0.62;4.63;3.30;;;25.30;22.70;;;;;;2045191;62;20486;-68
2024/04/11 05:13:38;0.00;0.00;0.62;0.00;0.00;0.62;4.40;3.60;;;25.30;23.20;;;;;;2042273;62;21023;-70
2024/04/11 05:16:26;0.00;0.00;0.62;0.00;0.00;0.62;6.50;4.30;;;25.30;22.70;;;;;;2042098;62;20469;-70
2024/04/11 05:19:15;0.00;0.00;0.62;0.00;0.00;0.62;5.30;4.27;;;25.30;22.70;;;;;;2041802;62;20473;-69
2024/04/11 05:22:00;0.00;0.00;0.62;0.00;0.00;0.62;6.00;5.30;;;25.30;22.70;;;;;;2042610;62;20535;-72
2024/04/11 05:24:45;0.00;0.00;0.62;0.00;0.00;0.62;7.53;4.33;;;25.30;23.30;;;;;;2042244;62;20469;-69
2024/04/11 05:27:30;0.00;0.00;0.62;0.00;0.00;0.62;6.90;4.93;;;25.30;22.80;;;;;;2041882;62;20584;-69
2024/04/11 05:30:15;0.00;0.00;0.62;0.00;0.00;0.62;7.80;5.53;;;25.30;22.80;;;;;;2045020;62;20468;-69
2024/04/11 05:33:04;0.00;0.00;0.62;0.00;0.00;0.62;6.77;5.40;;;25.30;22.80;;;;;;2041872;62;20539;-69
2024/04/11 05:35:49;0.00;0.00;0.62;0.00;0.00;0.62;7.43;5.60;;;25.20;22.80;;;;;;2041868;62;20461;-69
2024/04/11 05:38:37;0.00;0.00;0.62;0.00;0.00;0.62;8.77;7.00;;;25.20;22.80;;;;;;2042367;62;20460;-69
2024/04/11 05:41:22;0.00;0.00;0.62;0.00;0.00;0.62;6.90;5.80;;;25.20;22.80;;;;;;2042005;62;20478;-69
2024/04/11 05:44:07;0.00;0.00;0.62;0.00;0.00;0.62;9.00;6.63;;;25.30;22.90;;;;;;2042432;62;20512;-69
2024/04/11 05:46:52;0.00;0.00;0.62;0.00;0.00;0.62;9.43;7.20;;;25.20;22.80;;;;;;2042095;62;20535;-70
2024/04/11 05:49:39;0.00;0.00;0.62;0.00;0.00;0.62;7.63;6.37;;;25.20;22.80;;;;;;2041782;62;20469;-69
2024/04/11 05:52:24;0.00;0.00;0.62;0.00;0.00;0.62;8.60;6.80;;;25.20;22.80;;;;;;2042330;62;20523;-68
2024/04/11 05:55:12;0.00;0.00;0.62;0.00;0.00;0.62;9.30;6.70;;;25.20;22.80;;;;;;2042553;62;20582;-69
2024/04/11 05:57:58;0.00;0.00;0.62;0.00;0.00;0.62;8.50;6.63;;;25.20;22.80;;;;;;2042318;62;20465;-69
2024/04/11 06:00:49;0.00;0.00;0.62;0.00;0.00;0.62;8.67;6.73;;;25.20;22.80;;;;;;2037418;62;21090;-69
2024/04/11 06:03:34;0.00;0.00;0.62;0.00;0.00;0.62;11.73;7.57;;;25.20;23.30;;;;;;2036764;62;21058;-69
2024/04/11 06:06:21;0.00;0.00;0.62;0.00;0.00;0.62;9.20;7.40;;;25.20;22.80;;;;;;2037140;62;20478;-71
2024/04/11 06:09:08;0.00;0.00;0.62;0.00;0.00;0.62;7.07;6.30;;;25.20;22.80;;;;;;2036509;62;20545;-69
2024/04/11 06:11:53;0.00;0.00;0.62;0.00;0.00;0.62;9.30;7.10;;;25.20;22.80;;;;;;2036771;62;20467;-69
2024/04/11 06:14:38;0.00;0.00;0.62;0.00;0.00;0.62;8.30;5.83;;;25.20;22.80;;;;;;2036353;62;20462;-68
2024/04/11 06:17:22;0.00;0.00;0.62;0.00;0.00;0.62;8.13;6.40;;;25.20;22.80;;;;;;2036997;62;20475;-67
2024/04/11 06:20:15;0.00;0.00;0.62;0.00;0.00;0.62;8.50;6.53;;;25.20;22.80;;;;;;2036904;62;20479;-69
2024/04/11 06:23:08;0.00;0.00;0.62;0.00;0.00;0.62;7.03;5.50;;;25.20;22.80;;;;;;2036808;62;20533;-71
2024/04/11 06:25:54;0.00;0.00;0.62;0.00;0.00;0.62;9.40;6.23;;;25.20;22.80;;;;;;2036625;62;20520;-69
2024/04/11 06:28:39;0.00;0.00;0.62;0.00;0.00;0.62;8.67;5.87;;;25.20;23.30;;;;;;2036679;62;20537;-69
2024/04/11 06:31:24;0.00;0.00;0.62;0.00;0.00;0.62;8.17;5.97;;;25.20;22.80;;;;;;2037237;62;20466;-69
2024/04/11 06:34:08;0.00;0.00;0.62;0.00;0.00;0.62;9.10;6.10;;;25.20;22.80;;;;;;2037257;62;20463;-69
2024/04/11 06:36:54;0.00;0.00;0.62;0.00;0.00;0.62;7.50;5.47;;;25.20;22.80;;;;;;2037212;62;20486;-68
2024/04/11 06:39:41;0.00;0.00;0.62;0.00;0.00;0.62;8.20;6.20;;;25.20;22.80;;;;;;2037185;62;20479;-69
2024/04/11 06:42:26;0.00;0.00;0.62;0.00;0.00;0.62;10.50;5.73;;;25.20;22.80;;;;;;2037751;62;20483;-69
2024/04/11 06:45:14;0.00;0.00;0.62;0.00;0.00;0.62;8.43;4.93;;;25.20;22.80;;;;;;2037177;62;20479;-70
2024/04/11 06:47:59;0.00;0.00;0.62;0.00;0.00;0.62;7.93;5.67;;;25.20;22.80;;;;;;2036933;62;20533;-69
2024/04/11 06:50:43;0.00;0.00;0.62;0.00;0.00;0.62;8.00;5.40;;;25.20;22.80;;;;;;2037406;62;21094;-69
2024/04/11 06:53:30;0.00;0.00;0.62;0.00;0.00;0.62;6.40;5.13;;;25.20;22.80;;;;;;2037093;62;20463;-68
2024/04/11 06:56:22;0.00;0.00;0.62;0.00;0.00;0.62;7.80;5.27;;;25.20;22.80;;;;;;2037172;62;20479;-69
2024/04/11 06:59:10;0.00;0.00;0.62;0.00;0.00;0.62;6.13;4.63;;;25.20;22.80;;;;;;2037093;62;20470;-69
2024/04/11 07:01:58;0.00;0.00;0.62;0.00;0.00;0.62;6.57;4.87;;;25.20;22.70;;;;;;2033391;62;20466;-69
2024/04/11 07:04:43;0.00;0.00;0.62;0.00;0.00;0.62;7.07;4.90;;;25.20;22.70;;;;;;2037650;62;20462;-69
2024/04/11 07:07:28;0.00;0.00;0.62;0.00;0.00;0.62;8.03;5.40;;;25.20;22.70;;;;;;2041643;62;21087;-66
2024/04/11 07:10:24;0.00;0.00;0.62;0.00;0.00;0.62;6.57;5.37;;;25.20;22.70;;;;;;2041635;62;20462;-66
2024/04/11 07:13:12;0.00;0.00;0.62;0.00;0.00;0.62;8.20;4.67;;;25.20;22.60;;;;;;2041656;62;20523;-67
2024/04/11 07:15:58;0.00;0.00;0.62;0.00;0.00;0.62;7.80;4.80;;;25.20;22.60;;;;;;2042072;62;20485;-68
2024/04/11 07:18:48;0.00;0.00;0.62;0.00;0.00;0.62;6.27;5.27;;;25.20;22.60;;;;;;2041988;62;20469;-67
2024/04/11 07:21:34;0.00;0.00;0.62;0.00;0.00;0.62;6.30;4.70;;;25.20;22.60;;;;;;2041762;54;20473;-66
2024/04/11 07:24:23;0.00;0.00;0.62;0.00;0.00;0.62;6.10;4.37;;;25.20;22.60;;;;;;2042045;62;20478;-65
2024/04/11 07:27:11;0.00;0.00;0.62;0.00;0.00;0.62;6.60;4.77;;;25.20;22.60;;;;;;2042049;62;20474;-66
2024/04/11 07:29:58;0.00;0.00;0.62;0.00;0.00;0.62;6.77;4.23;;;25.20;22.50;;;;;;2041747;62;20872;-64
2024/04/11 07:32:44;0.00;0.00;0.62;0.00;0.00;0.62;6.70;4.90;;;25.20;22.50;;;;;;2041983;62;20462;-64
2024/04/11 07:35:30;0.00;0.00;0.62;0.00;0.00;0.62;6.97;4.97;;;25.20;22.50;;;;;;2042159;62;20470;-67
2024/04/11 07:38:15;0.00;0.00;0.62;0.00;0.00;0.62;6.30;4.30;;;25.20;22.50;;;;;;2041768;62;20495;-64
2024/04/11 07:40:59;0.00;0.00;0.62;0.00;0.00;0.62;5.80;4.40;;;25.20;22.50;;;;;;2041943;62;20502;-65
2024/04/11 07:43:49;0.00;0.00;0.62;0.00;0.00;0.62;5.70;3.90;;;25.20;22.70;;;;;;2041710;62;20539;-65
2024/04/11 07:46:37;0.00;0.00;0.62;0.00;0.00;0.62;6.43;4.83;;;25.20;22.40;;;;;;2041982;62;20474;-67
2024/04/11 07:49:24;0.00;0.00;0.62;0.00;0.00;0.62;6.70;4.27;;;25.20;22.40;;;;;;2042041;62;20503;-67
2024/04/11 07:52:10;0.00;0.00;0.62;0.00;0.00;0.62;6.37;4.80;;;25.20;22.40;;;;;;2041667;62;20458;-65
2024/04/11 07:54:55;0.00;0.00;0.62;0.00;0.00;0.62;6.40;4.30;;;25.20;22.40;;;;;;2041963;62;20473;-65
2024/04/11 07:57:42;0.00;0.00;0.62;0.00;0.00;0.62;5.40;3.80;;;25.20;22.40;;;;;;2042056;62;20462;-65
2024/04/11 08:00:27;0.00;0.00;0.62;0.00;0.00;0.62;6.30;4.23;;;25.20;22.30;;;;;;2041833;62;20458;-65
2024/04/11 08:03:16;0.00;0.00;0.62;0.00;0.00;0.62;6.43;3.90;;;25.20;22.30;;;;;;2042007;62;20877;-65
2024/04/11 08:06:01;0.00;0.00;0.62;0.00;0.00;0.62;6.33;4.37;;;25.20;22.40;;;;;;2041553;62;20540;-65
2024/04/11 08:08:48;0.00;0.00;0.62;0.00;0.00;0.62;5.03;3.93;;;25.20;22.30;;;;;;2041852;62;20499;-67
2024/04/11 08:11:34;0.00;0.00;0.62;0.00;0.00;0.62;4.10;3.50;;;25.20;22.30;;;;;;2041887;62;20539;-67
2024/04/11 08:14:19;0.00;0.00;0.62;0.00;0.00;0.62;5.30;3.70;;;25.20;22.30;;;;;;2041380;62;20454;-66
2024/04/11 08:17:04;0.00;0.00;0.62;0.00;0.00;0.62;5.13;3.57;;;25.20;22.30;;;;;;2041704;62;21035;-67
2024/04/11 08:19:52;0.00;0.00;0.62;0.00;0.00;0.62;4.60;3.23;;;25.20;22.30;;;;;;2041525;62;20457;-66
2024/04/11 08:22:38;0.00;0.00;0.62;0.00;0.00;0.62;8.07;4.17;;;25.10;22.30;;;;;;2041597;62;20969;-68
2024/04/11 08:25:23;0.00;0.00;0.62;0.00;0.00;0.62;5.50;2.87;;;25.20;22.40;;;;;;2041743;62;20577;-67
2024/04/11 08:28:11;0.00;0.00;0.62;0.00;0.00;0.62;6.17;3.70;;;25.10;22.30;;;;;;2041127;62;20526;-67
2024/04/11 08:30:56;0.00;0.00;0.62;0.00;0.00;0.62;6.20;3.60;;;25.20;22.40;;;;;;2041939;62;20496;-68
2024/04/11 08:33:42;0.00;0.00;0.62;0.00;0.00;0.62;5.93;3.70;;;25.20;22.50;;;;;;2041711;62;20461;-67
2024/04/11 08:36:31;0.00;0.00;0.62;0.00;0.00;0.62;5.00;3.50;;;25.20;22.50;;;;;;2040584;62;20469;-67
2024/04/11 08:39:16;0.00;0.00;0.62;0.00;0.00;0.62;4.10;3.10;;;25.20;22.50;;;;;;2041569;62;20478;-67
2024/04/11 08:42:01;0.00;0.00;0.62;0.00;0.00;0.62;4.43;3.10;;;25.20;22.50;;;;;;2041109;62;20469;-67
2024/04/11 08:44:47;0.00;0.00;0.62;0.00;0.00;0.62;4.93;3.30;;;25.20;22.50;;;;;;2041902;62;20488;-67
2024/04/11 08:47:31;0.00;0.00;0.62;0.00;0.00;0.62;4.13;3.40;;;25.20;22.60;;;;;;2041670;62;20462;-68
2024/04/11 08:50:16;0.00;0.00;0.62;0.00;0.00;0.62;4.70;2.80;;;25.20;22.60;;;;;;2040950;62;20859;-67
2024/04/11 08:53:09;0.00;0.00;0.62;0.00;0.00;0.62;3.63;2.53;;;25.20;22.60;;;;;;2041807;62;20482;-67
2024/04/11 08:55:56;0.00;0.00;0.62;0.00;0.00;0.62;5.37;2.87;;;25.10;22.60;;;;;;2041812;62;20486;-67
2024/04/11 08:58:43;0.00;0.00;0.62;0.00;0.00;0.62;3.63;2.60;;;25.10;22.50;;;;;;2041087;62;20469;-67
2024/04/11 09:01:29;0.00;0.00;0.62;0.00;0.00;0.62;4.07;2.63;;;25.20;22.60;;;;;;2041747;62;20553;-68
2024/04/11 09:04:14;0.00;0.00;0.62;0.00;0.00;0.62;4.40;2.50;;;25.20;22.70;;;;;;2041585;62;20493;-67
2024/04/11 09:07:00;0.00;0.00;0.62;0.00;0.00;0.62;3.30;2.70;;;25.20;22.60;;;;;;2041649;62;20481;-67
2024/04/11 09:09:48;0.00;0.00;0.62;0.00;0.00;0.62;3.63;2.40;;;25.20;22.70;;;;;;2041514;62;20475;-67
2024/04/11 09:12:33;0.00;0.00;0.62;0.00;0.00;0.62;4.37;2.10;;;25.20;22.70;;;;;;2041175;62;20473;-68
2024/04/11 09:15:18;0.00;0.00;0.62;0.00;0.00;0.62;3.13;2.60;;;25.20;22.70;;;;;;2041705;62;20551;-66
2024/04/11 09:18:03;0.00;0.00;0.62;0.00;0.00;0.62;2.90;2.60;;;25.20;22.70;;;;;;2041729;62;21015;-68
2024/04/11 09:20:58;0.00;0.00;0.62;0.00;0.00;0.62;3.27;2.33;;;25.20;22.70;;;;;;2041525;62;20991;-65
2024/04/11 09:23:46;0.00;0.00;0.62;0.00;0.00;0.62;4.40;2.70;;;25.20;22.70;;;;;;2041928;62;20539;-66
2024/04/11 09:26:37;0.00;0.00;0.62;0.00;0.00;0.62;3.60;2.53;;;25.20;22.70;;;;;;2041770;62;20485;-64
2024/04/11 09:29:21;0.00;0.00;0.62;0.00;0.00;0.62;3.90;2.60;;;25.20;22.70;;;;;;2041627;62;20531;-68
2024/04/11 09:32:09;0.00;0.00;0.62;0.00;0.00;0.62;3.50;2.63;;;25.20;23.30;;;;;;2041876;62;20854;-65
2024/04/11 09:35:01;0.00;0.00;0.62;0.00;0.00;0.62;3.80;2.17;;;25.20;22.70;;;;;;2041510;62;20457;-65
2024/04/11 09:37:49;0.00;0.00;0.62;0.00;0.00;0.62;2.90;2.20;;;25.10;22.70;;;;;;2041828;62;20922;-66
2024/04/11 09:40:34;0.00;0.00;0.62;0.00;0.00;0.62;3.80;2.37;;;25.20;22.70;;;;;;2041909;62;20458;-67
2024/04/11 09:43:27;0.00;0.00;0.62;0.00;0.00;0.62;3.10;2.03;;;25.20;22.80;;;;;;2041598;62;20454;-64
2024/04/11 09:46:17;0.00;0.00;0.62;0.00;0.00;0.62;5.83;2.87;;;25.20;22.80;;;;;;2041720;62;20469;-65
2024/04/11 09:49:02;0.00;0.00;0.62;0.00;0.00;0.62;3.10;2.07;;;25.20;22.80;;;;;;2041690;62;20987;-64
2024/04/11 09:51:51;0.00;0.00;0.62;0.00;0.00;0.62;3.07;1.83;;;25.20;22.80;;;;;;2041848;62;20457;-66
2024/04/11 09:54:38;0.00;0.00;0.62;0.00;0.00;0.62;2.90;1.97;;;25.20;22.80;;;;;;2041562;62;20470;-66
2024/04/11 09:57:26;0.00;0.00;0.62;0.00;0.00;0.62;3.80;2.40;;;25.20;22.80;;;;;;2040977;54;21014;-66
2024/04/11 10:03:22;0.00;0.00;0.62;0.00;0.00;0.62;5.20;2.20;;;25.20;22.80;;;;;;2043374;62;20477;-67
2024/04/11 10:06:13;0.00;0.00;0.62;0.00;0.00;0.62;2.47;2.17;;;25.20;22.80;;;;;;2041848;62;20939;-67
2024/04/11 10:09:11;0.00;0.00;0.62;0.00;0.00;0.62;4.77;2.60;;;25.20;22.80;;;;;;2041901;62;20465;-66
2024/04/11 10:12:03;0.00;0.00;0.62;0.00;0.00;0.62;3.47;2.30;;;25.20;22.80;;;;;;2041488;62;20603;-66
2024/04/11 10:14:59;0.00;0.00;0.62;0.00;0.00;0.62;5.43;2.80;;;25.20;22.80;;;;;;2041987;62;20461;-67
2024/04/11 10:18:02;0.00;0.00;0.62;0.00;0.00;0.62;3.60;1.80;;;25.20;22.80;;;;;;2042115;62;20854;-66
2024/04/11 10:21:02;0.00;0.00;0.62;0.00;0.00;0.62;3.50;1.87;;;25.20;22.90;;;;;;2041780;62;20461;-66
2024/04/11 10:23:48;0.00;0.00;0.62;0.00;0.00;0.62;4.00;2.60;;;25.20;22.80;;;;;;2041992;62;21014;-66
2024/04/11 10:26:33;0.00;0.00;0.62;0.00;0.00;0.62;2.83;1.97;;;25.20;22.80;;;;;;2041577;62;20551;-66
2024/04/11 10:29:19;0.00;0.00;0.62;0.00;0.00;0.62;2.63;1.87;;;25.20;22.90;;;;;;2041953;62;20470;-67
2024/04/11 10:32:12;0.00;0.00;0.62;0.00;0.00;0.62;4.00;2.30;;;25.20;22.90;;;;;;2042180;62;20551;-66
2024/04/11 10:35:02;0.00;0.00;0.62;0.00;0.00;0.62;3.47;2.30;;;25.20;22.90;;;;;;2041441;62;20458;-67
2024/04/11 10:37:49;0.00;0.00;0.62;0.00;0.00;0.62;2.50;1.67;;;25.20;22.90;;;;;;2042012;62;20512;-66
2024/04/11 10:40:33;0.00;0.00;0.62;0.00;0.00;0.62;2.83;2.07;;;25.20;22.90;;;;;;2041846;62;20702;-67
2024/04/11 10:43:24;0.00;0.00;0.62;0.00;0.00;0.62;2.73;2.03;;;25.20;22.90;;;;;;2041736;62;20469;-66
2024/04/11 10:46:12;0.00;0.00;0.62;0.00;0.00;0.62;3.37;1.87;;;25.20;22.90;;;;;;2042062;62;20514;-67
2024/04/11 10:49:15;0.00;0.00;0.62;0.00;0.00;0.62;3.07;1.50;;;25.20;22.90;;;;;;2041528;62;20461;-66
2024/04/11 10:52:05;0.00;0.00;0.62;0.00;0.00;0.62;3.63;1.97;;;25.20;22.90;;;;;;2042093;62;20478;-65
2024/04/11 10:55:00;0.00;0.00;0.62;0.00;0.00;0.62;2.40;1.50;;;25.20;22.90;;;;;;2041993;62;21073;-67
2024/04/11 10:57:45;0.00;0.00;0.62;0.00;0.00;0.62;2.57;1.90;;;25.20;23.00;;;;;;2041742;62;20532;-65
2024/04/11 11:01:07;0.00;0.00;0.62;0.00;0.00;0.62;2.90;2.10;;;25.20;23.00;;;;;;2042024;62;21025;-66
2024/04/11 11:06:34;0.00;0.00;0.62;0.00;0.00;0.62;3.43;2.20;;;25.20;23.00;;;;;;2041862;62;20472;-67